Time;durP1;ratioP1;P1;durP2;ratioP2;P2;SDS_P1;SDS_P2;PMS_P1;PMS_P2;Temp;Humidity;BMP_temperature;BMP_pressure;BME280_temperature;BME280_humidity;BME280_pressure;Samples;Min_cycle;Max_cycle;Signal;HPM_P1;HPM_P2
2021/12/05 00:22:41;;;;;;;4.28;1.17;;;5.00;99.90;;;;;;6723766;88;20828;-74
2021/12/05 00:53:55;;;;;;;3.45;0.90;;;4.90;99.90;;;;;;6715982;88;20733;-74
2021/12/05 01:04:16;;;;;;;5.65;1.08;;;4.80;99.90;;;;;;6714135;88;20236;-74
2021/12/05 01:14:21;;;;;;;7.90;1.48;;;4.80;99.90;;;;;;6713052;88;20192;-74
2021/12/05 01:35:03;;;;;;;7.60;1.12;;;4.30;99.90;;;;;;6719560;88;20311;-74
2021/12/05 01:45:57;;;;;;;5.03;1.40;;;4.20;99.90;;;;;;6715828;88;20243;-74
2021/12/05 01:55:49;;;;;;;7.95;1.30;;;4.00;99.90;;;;;;6712127;88;20695;-74
2021/12/05 02:16:44;;;;;;;7.95;1.27;;;4.10;99.90;;;;;;6708565;88;20186;-74
2021/12/05 02:47:12;;;;;;;9.80;1.10;;;4.30;99.90;;;;;;6714742;88;20220;-74
2021/12/05 02:57:13;;;;;;;6.55;1.08;;;4.40;99.90;;;;;;6715738;88;20182;-74
2021/12/05 03:07:17;;;;;;;9.65;1.27;;;4.40;99.90;;;;;;6716324;88;20185;-75
2021/12/05 03:17:18;;;;;;;7.72;0.80;;;4.30;99.90;;;;;;6715279;88;20178;-74
2021/12/05 03:27:18;;;;;;;8.50;1.02;;;4.20;99.90;;;;;;6716255;88;20206;-74
2021/12/05 03:37:19;;;;;;;5.75;0.85;;;4.30;99.90;;;;;;6715291;88;20799;-74
2021/12/05 03:47:20;;;;;;;5.87;0.90;;;4.10;99.90;;;;;;6715091;88;20323;-74
2021/12/05 03:57:20;;;;;;;3.00;0.88;;;4.10;99.90;;;;;;6714845;88;20194;-74
2021/12/05 04:07:21;;;;;;;8.43;1.25;;;4.00;99.90;;;;;;6715011;88;20194;-74
2021/12/05 04:17:23;;;;;;;5.60;0.98;;;3.80;99.90;;;;;;6714796;88;20267;-74
2021/12/05 04:27:23;;;;;;;8.93;1.10;;;3.80;99.90;;;;;;6714508;88;20684;-74
2021/12/05 04:37:24;;;;;;;6.75;1.05;;;3.70;99.90;;;;;;6714433;88;20316;-73
2021/12/05 04:47:24;;;;;;;4.90;1.08;;;3.50;99.90;;;;;;6712993;88;20174;-75
2021/12/05 04:57:25;;;;;;;5.85;0.80;;;3.00;99.90;;;;;;6709793;88;20197;-74
2021/12/05 05:07:27;;;;;;;4.18;0.73;;;2.90;99.90;;;;;;6714304;88;20294;-75
2021/12/05 05:17:28;;;;;;;4.75;1.08;;;3.10;99.90;;;;;;6714720;88;20313;-74
2021/12/05 05:58:16;;;;;;;2.95;0.90;;;2.80;99.90;;;;;;6725832;88;20893;-75
2021/12/05 06:08:17;;;;;;;3.60;0.90;;;2.50;99.90;;;;;;6727033;88;20174;-74
2021/12/05 06:18:19;;;;;;;6.25;0.90;;;2.50;99.90;;;;;;6731572;88;20201;-75
2021/12/05 06:28:28;;;;;;;5.05;0.90;;;2.60;99.90;;;;;;6719686;88;20317;-74
2021/12/05 06:48:49;;;;;;;4.97;1.10;;;3.10;99.90;;;;;;6713930;88;20207;-74
2021/12/05 06:58:50;;;;;;;6.65;0.93;;;2.90;99.90;;;;;;6715897;88;20349;-74
2021/12/05 07:08:53;;;;;;;5.18;1.10;;;3.10;99.90;;;;;;6714698;88;20289;-73
2021/12/05 07:49:36;;;;;;;6.82;1.40;;;2.80;99.90;;;;;;6717982;88;20213;-75
2021/12/05 07:59:55;;;;;;;3.60;1.00;;;2.80;99.90;;;;;;6722805;88;20210;-77
2021/12/05 08:20:17;;;;;;;4.00;1.17;;;2.70;99.90;;;;;;6716844;88;20215;-77
2021/12/05 08:30:28;;;;;;;5.05;1.33;;;2.90;99.90;;;;;;6716459;88;20189;-75
2021/12/05 08:40:57;;;;;;;5.07;1.30;;;3.10;99.90;;;;;;6717851;88;20178;-75
2021/12/05 09:22:32;;;;;;;4.00;1.10;;;4.30;99.90;;;;;;6727141;88;20212;-77
2021/12/05 10:13:57;;;;;;;4.45;1.00;;;4.90;99.90;;;;;;6725040;88;20241;-76
2021/12/05 10:34:33;;;;;;;4.05;0.80;;;5.40;99.90;;;;;;6722050;88;20200;-76
2021/12/05 10:44:45;;;;;;;1.70;0.80;;;5.70;99.90;;;;;;6722187;88;20588;-76
2021/12/05 10:54:56;;;;;;;2.25;0.60;;;5.80;99.90;;;;;;6718368;88;20197;-76
2021/12/05 11:04:56;;;;;;;3.30;0.80;;;5.80;99.90;;;;;;6719191;88;20197;-76
2021/12/05 11:15:02;;;;;;;2.47;0.60;;;6.10;99.90;;;;;;6718232;88;20255;-76
2021/12/05 11:25:09;;;;;;;1.73;0.40;;;6.30;99.90;;;;;;6723310;88;20190;-77
2021/12/05 11:35:16;;;;;;;1.10;0.40;;;6.60;99.90;;;;;;6711261;77;20277;-77
2021/12/05 11:45:16;;;;;;;1.83;0.50;;;6.60;99.90;;;;;;6686376;88;20209;-76
2021/12/05 11:55:27;;;;;;;2.53;0.50;;;6.90;99.90;;;;;;6696608;88;20556;-77
2021/12/05 12:05:34;;;;;;;1.65;0.40;;;7.10;99.90;;;;;;6694575;88;20245;-76
2021/12/05 12:15:37;;;;;;;4.22;0.70;;;7.00;99.90;;;;;;6693163;88;20183;-76
2021/12/05 12:25:40;;;;;;;2.33;0.40;;;6.80;99.90;;;;;;6701953;88;20221;-77
2021/12/05 12:35:44;;;;;;;1.80;0.47;;;6.80;99.90;;;;;;6693119;88;20202;-77
2021/12/05 12:45:45;;;;;;;2.20;0.50;;;7.00;99.90;;;;;;6697925;88;20705;-77
2021/12/05 12:55:56;;;;;;;1.90;0.52;;;7.00;99.90;;;;;;6702798;88;20209;-76
2021/12/05 13:16:36;;;;;;;3.80;1.00;;;7.30;99.90;;;;;;6698467;88;20932;-77
2021/12/05 13:26:40;;;;;;;1.60;0.62;;;7.10;99.90;;;;;;6708923;88;20205;-77
2021/12/05 13:36:42;;;;;;;3.20;0.70;;;7.10;99.90;;;;;;6710741;88;20226;-77
2021/12/05 13:46:44;;;;;;;2.10;0.62;;;7.00;99.90;;;;;;6701749;88;20741;-76
2021/12/05 13:56:46;;;;;;;2.60;0.60;;;6.90;99.90;;;;;;6702955;88;20210;-77
2021/12/05 14:07:01;;;;;;;2.12;0.60;;;7.00;99.90;;;;;;6700911;88;20178;-77
2021/12/05 14:17:24;;;;;;;1.95;0.60;;;7.00;99.90;;;;;;6706784;88;20326;-78
2021/12/05 14:27:28;;;;;;;11.00;1.10;;;6.80;99.90;;;;;;6703854;88;20191;-79
2021/12/05 14:37:33;;;;;;;3.42;0.60;;;6.80;99.90;;;;;;6708010;88;20199;-79
2021/12/05 14:47:36;;;;;;;5.35;1.20;;;6.70;99.90;;;;;;6708012;88;20608;-77
2021/12/05 14:57:46;;;;;;;3.50;0.95;;;6.60;99.90;;;;;;6704306;88;20237;-77
2021/12/05 15:07:47;;;;;;;2.65;1.10;;;6.50;99.90;;;;;;6700886;88;20989;-77
2021/12/05 15:17:47;;;;;;;1.77;0.80;;;6.40;99.90;;;;;;6701947;88;20197;-77
2021/12/05 15:27:48;;;;;;;3.25;1.10;;;6.30;99.90;;;;;;6697360;88;20183;-77
2021/12/05 15:37:56;;;;;;;2.45;0.90;;;6.30;99.90;;;;;;6709753;88;20287;-77
2021/12/05 15:47:56;;;;;;;4.47;1.00;;;6.20;99.90;;;;;;6699669;88;20224;-75
2021/12/05 15:58:20;;;;;;;2.97;1.20;;;6.10;99.90;;;;;;6697010;88;20256;-75
2021/12/05 16:08:21;;;;;;;3.87;1.50;;;6.10;99.90;;;;;;6694267;88;20276;-75
2021/12/05 16:18:32;;;;;;;3.78;1.42;;;6.00;99.90;;;;;;6694943;88;20333;-75
2021/12/05 16:28:40;;;;;;;3.70;1.42;;;5.80;99.90;;;;;;6692978;88;20190;-75
2021/12/05 16:38:46;;;;;;;3.05;1.50;;;5.80;99.90;;;;;;6693786;88;20239;-75
2021/12/05 16:48:48;;;;;;;4.77;1.37;;;5.80;99.90;;;;;;6694814;88;20159;-75
2021/12/05 16:59:05;;;;;;;3.75;1.52;;;5.70;99.90;;;;;;6694313;88;20680;-74
2021/12/05 17:09:11;;;;;;;6.43;2.05;;;5.70;99.90;;;;;;6691909;88;20204;-75
2021/12/05 17:19:13;;;;;;;4.70;2.03;;;5.70;99.90;;;;;;6692870;88;21001;-75
2021/12/05 17:29:34;;;;;;;6.35;2.40;;;5.70;99.90;;;;;;6699394;88;20206;-76
2021/12/05 17:39:41;;;;;;;3.53;1.70;;;5.60;99.90;;;;;;6719821;77;20641;-79
2021/12/05 17:49:45;;;;;;;6.60;1.73;;;5.60;99.90;;;;;;6733140;88;20193;-78
2021/12/05 18:00:00;;;;;;;4.97;1.70;;;5.40;99.90;;;;;;6723220;88;20186;-77
2021/12/05 18:10:02;;;;;;;4.07;1.40;;;5.40;99.90;;;;;;6724863;88;20384;-76
2021/12/05 18:20:04;;;;;;;2.45;1.40;;;5.60;99.90;;;;;;6729537;88;20777;-79
2021/12/05 18:30:09;;;;;;;3.20;1.77;;;5.60;99.90;;;;;;6726547;88;20329;-78
2021/12/05 18:40:12;;;;;;;3.08;1.80;;;5.50;99.90;;;;;;6731519;88;20656;-78
2021/12/05 18:50:12;;;;;;;3.67;1.70;;;5.50;99.90;;;;;;6734871;88;20214;-78
2021/12/05 19:00:29;;;;;;;4.15;2.30;;;5.50;99.90;;;;;;6724018;88;20677;-77
2021/12/05 19:20:51;;;;;;;5.60;2.90;;;5.50;99.90;;;;;;6726872;88;20304;-79
2021/12/05 19:30:54;;;;;;;5.43;2.12;;;5.60;99.90;;;;;;6728427;88;20230;-78
2021/12/05 19:40:59;;;;;;;4.15;2.00;;;5.40;99.90;;;;;;6725010;88;20230;-78
2021/12/05 19:51:06;;;;;;;4.65;2.30;;;5.40;99.90;;;;;;6727493;88;20182;-78
2021/12/05 20:01:09;;;;;;;6.37;2.47;;;5.50;99.90;;;;;;6717784;88;20238;-77
2021/12/05 20:11:11;;;;;;;5.40;2.62;;;5.40;99.90;;;;;;6726303;88;20214;-79
2021/12/05 20:21:12;;;;;;;6.45;2.35;;;5.30;99.90;;;;;;6729837;88;20191;-79
2021/12/05 20:31:13;;;;;;;5.97;2.90;;;5.10;99.90;;;;;;6723614;88;20193;-77
2021/12/05 20:41:15;;;;;;;4.45;2.75;;;5.20;99.90;;;;;;6728548;88;21056;-78
2021/12/05 20:51:16;;;;;;;5.47;2.70;;;5.10;99.90;;;;;;6726488;88;20310;-78
2021/12/05 21:01:19;;;;;;;3.83;2.22;;;5.10;99.90;;;;;;6725375;88;21230;-79
2021/12/05 21:11:22;;;;;;;7.45;3.78;;;4.80;99.90;;;;;;6726538;88;20250;-77
2021/12/05 21:21:25;;;;;;;6.10;3.78;;;4.60;99.90;;;;;;6725579;88;20635;-77
2021/12/05 21:31:25;;;;;;;8.77;3.87;;;4.70;99.90;;;;;;6728695;88;20214;-77
2021/12/05 21:41:26;;;;;;;7.10;3.60;;;4.50;99.90;;;;;;6730765;88;20191;-77
2021/12/05 21:51:28;;;;;;;7.12;3.87;;;4.50;99.90;;;;;;6728602;88;20201;-77
2021/12/05 22:01:28;;;;;;;6.97;3.75;;;4.40;99.90;;;;;;6727899;88;20272;-77
2021/12/05 22:11:29;;;;;;;6.57;3.37;;;4.50;99.90;;;;;;6725906;88;21154;-76
2021/12/05 22:21:34;;;;;;;7.55;3.37;;;4.70;99.90;;;;;;6733534;88;20354;-76
2021/12/05 22:31:38;;;;;;;9.43;3.65;;;4.80;99.90;;;;;;6732816;88;20290;-76
2021/12/05 22:41:40;;;;;;;6.07;3.75;;;4.60;99.90;;;;;;6727204;88;20900;-76
2021/12/05 22:51:41;;;;;;;12.48;6.65;;;4.50;99.90;;;;;;6718027;88;20192;-76
2021/12/05 23:01:42;;;;;;;6.90;3.87;;;4.40;99.90;;;;;;6730550;88;20600;-76
2021/12/05 23:11:43;;;;;;;7.47;4.40;;;4.30;99.90;;;;;;6726079;88;20239;-76
2021/12/05 23:21:54;;;;;;;8.68;4.28;;;4.70;99.90;;;;;;6715781;88;20381;-77
2021/12/05 23:31:57;;;;;;;8.95;4.50;;;4.70;99.90;;;;;;6728415;88;20205;-77
2021/12/05 23:41:58;;;;;;;8.05;4.20;;;4.70;99.90;;;;;;6717136;88;20173;-77
2021/12/05 23:51:59;;;;;;;7.65;4.10;;;4.50;99.90;;;;;;6715767;88;20359;-76
